Mill Village, Pennsylvania
Current Conditions -  °F | °C
As of 10:51 PM on Friday 19 Dec 2014 (Local Time) from KERI Reporting Station
Overcast Overcast  
Wind Chill: 23°   Ceiling: 1800
Heat Index: 31°   Visibility: 10mi
Dew Point: 23°   Wind: 9mph
Humidity: 72%   Direction: 10°N
Pressure: 30.27"   Gusts: NA
Location:  41.88°N, 79.97°W
Report Text: KERI 200351Z 01008KT 10SM BKN018 OVC026 M01/M05 A3027 RMK AO2 SLP261 T10061050
Loading
Personal Weather Stations






























Interactive Weather Map New forecast layout! Learn more

10-Day Weather Forecast

Advertisements
Track Severe Weather on mobile